Time,TemperatureF,DewpointF,PressureIn,WindDirection,WindDirectionDegrees,WindSpeedMPH,WindSpeedGustMPH,Humidity,HourlyPrecipIn,Conditions,Clouds,dailyrainin,SoftwareType,DateUTC
2013-02-27 00:05:00,43.3,25.0,29.56,North,11,3.0,11.2,48,0.00,,,-99.99,FreeWX 2.04,2013-02-27 05:05:00,
2013-02-27 00:15:00,43.3,24.4,29.56,NNE,25,4.0,14.3,47,0.00,,,-99.99,FreeWX 2.04,2013-02-27 05:15:00,
2013-02-27 00:25:00,43.0,24.1,29.56,NE,52,4.0,11.6,47,0.00,,,-99.99,FreeWX 2.04,2013-02-27 05:25:00,
2013-02-27 00:35:00,42.8,24.4,29.56,North,7,3.0,10.5,48,0.00,,,-99.99,FreeWX 2.04,2013-02-27 05:35:00,
2013-02-27 00:45:00,42.6,24.3,29.56,NE,51,2.0,5.8,48,0.00,,,-99.99,FreeWX 2.04,2013-02-27 05:45:00,
2013-02-27 00:55:00,42.4,24.6,29.56,North,350,1.0,6.7,49,0.00,,,-99.99,FreeWX 2.04,2013-02-27 05:55:00,
2013-02-27 01:05:00,42.3,24.4,29.56,North,1,3.0,7.8,49,0.00,,,-99.99,FreeWX 2.04,2013-02-27 06:05:00,
2013-02-27 01:15:00,42.4,25.2,29.56,NNE,20,2.0,5.4,50,0.00,,,-99.99,FreeWX 2.04,2013-02-27 06:15:00,
2013-02-27 01:25:00,42.3,25.0,29.59,NNE,19,1.0,6.9,50,0.00,,,-99.99,FreeWX 2.04,2013-02-27 06:25:00,
2013-02-27 01:35:00,42.3,25.5,29.59,NE,41,2.0,4.9,51,0.00,,,-99.99,FreeWX 2.04,2013-02-27 06:35:00,
2013-02-27 01:45:00,42.1,25.3,29.59,NNE,24,2.0,5.4,51,0.00,,,-99.99,FreeWX 2.04,2013-02-27 06:45:00,
2013-02-27 01:55:00,41.5,25.7,29.59,ESE,110,3.0,6.3,53,0.00,,,-99.99,FreeWX 2.04,2013-02-27 06:55:00,
2013-02-27 02:05:00,40.3,25.3,29.59,East,95,4.0,9.6,55,0.04,,,-99.99,FreeWX 2.04,2013-02-27 07:05:00,
2013-02-27 02:15:00,39.9,25.9,29.59,East,101,2.0,7.8,57,0.04,,,-99.99,FreeWX 2.04,2013-02-27 07:15:00,
2013-02-27 02:25:00,39.7,26.2,29.59,ESE,121,2.0,8.7,58,0.04,,,-99.99,FreeWX 2.04,2013-02-27 07:25:00,
2013-02-27 02:35:00,39.7,26.6,29.59,ENE,67,2.0,5.8,59,0.04,,,-99.99,FreeWX 2.04,2013-02-27 07:35:00,
2013-02-27 02:45:00,39.7,27.0,29.59,ENE,60,2.0,8.3,60,0.08,,,-99.99,FreeWX 2.04,2013-02-27 07:45:00,
2013-02-27 02:55:00,39.9,27.5,29.59,East,83,3.0,10.1,61,0.04,,,-99.99,FreeWX 2.04,2013-02-27 07:55:00,
2013-02-27 03:06:00,39.7,27.3,29.59,East,87,3.0,6.7,61,0.04,,,-99.99,FreeWX 2.04,2013-02-27 08:06:00,
2013-02-27 03:16:00,39.6,27.7,29.59,ENE,78,4.0,10.1,62,0.04,,,-99.99,FreeWX 2.04,2013-02-27 08:16:00,
2013-02-27 03:26:00,39.4,27.1,29.59,East,88,2.0,7.8,61,0.04,,,-99.99,FreeWX 2.04,2013-02-27 08:26:00,
2013-02-27 03:36:00,39.2,27.3,29.62,ESE,121,2.0,6.7,62,0.04,,,-99.99,FreeWX 2.04,2013-02-27 08:36:00,
2013-02-27 03:46:00,39.4,27.9,29.62,East,82,1.0,5.8,63,0.00,,,-99.99,FreeWX 2.04,2013-02-27 08:46:00,
2013-02-27 03:56:00,39.4,27.9,29.62,NNE,13,2.0,6.7,63,0.00,,,-99.99,FreeWX 2.04,2013-02-27 08:56:00,
2013-02-27 04:06:00,39.6,28.0,29.62,NNE,22,4.0,11.6,63,0.00,,,-99.99,FreeWX 2.04,2013-02-27 09:06:00,
2013-02-27 04:16:00,39.6,27.7,29.62,North,-999,0.0,4.9,62,0.00,,,-99.99,FreeWX 2.04,2013-02-27 09:16:00,
2013-02-27 04:26:00,39.4,27.5,29.62,North,3,1.0,4.5,62,0.00,,,-99.99,FreeWX 2.04,2013-02-27 09:26:00,
2013-02-27 04:36:00,39.4,27.5,29.62,North,-999,0.0,5.8,62,0.00,,,-99.99,FreeWX 2.04,2013-02-27 09:36:00,
2013-02-27 04:46:00,39.4,27.9,29.62,North,358,2.0,6.3,63,0.00,,,-99.99,FreeWX 2.04,2013-02-27 09:46:00,
2013-02-27 04:56:00,39.6,27.7,29.62,North,11,2.0,6.3,62,0.00,,,-99.99,FreeWX 2.04,2013-02-27 09:56:00,
2013-02-27 05:06:00,39.4,27.5,29.62,NNE,15,2.0,6.3,62,0.00,,,-99.99,FreeWX 2.04,2013-02-27 10:06:00,
2013-02-27 05:16:00,39.4,27.5,29.65,NNE,24,3.0,6.3,62,0.00,,,-99.99,FreeWX 2.04,2013-02-27 10:16:00,
2013-02-27 05:26:00,39.4,27.1,29.65,NNE,33,1.0,6.3,61,0.00,,,-99.99,FreeWX 2.04,2013-02-27 10:26:00,
2013-02-27 05:36:00,39.4,27.1,29.65,NNE,26,3.0,6.9,61,0.00,,,-99.99,FreeWX 2.04,2013-02-27 10:36:00,
2013-02-27 05:46:00,39.4,27.1,29.65,NNE,29,1.0,6.7,61,0.00,,,-99.99,FreeWX 2.04,2013-02-27 10:46:00,
2013-02-27 05:56:00,39.4,26.2,29.65,NNE,26,4.0,9.2,59,0.00,,,-99.99,FreeWX 2.04,2013-02-27 10:56:00,
2013-02-27 06:06:00,39.4,25.9,29.65,NE,56,3.0,8.7,58,0.00,,,-99.99,FreeWX 2.04,2013-02-27 11:06:00,
2013-02-27 06:16:00,39.4,25.9,29.65,NE,54,1.0,4.9,58,0.00,,,-99.99,FreeWX 2.04,2013-02-27 11:16:00,
2013-02-27 06:26:00,39.4,25.9,29.65,North,7,1.0,4.9,58,0.00,,,-99.99,FreeWX 2.04,2013-02-27 11:26:00,
2013-02-27 06:36:00,39.4,25.9,29.65,North,-999,0.0,4.0,58,0.00,,,-99.99,FreeWX 2.04,2013-02-27 11:36:00,
2013-02-27 06:46:00,39.4,25.9,29.65,North,4,1.0,5.4,58,0.00,,,-99.99,FreeWX 2.04,2013-02-27 11:46:00,
2013-02-27 06:56:00,39.4,25.9,29.65,NE,36,1.0,5.8,58,0.00,,,-99.99,FreeWX 2.04,2013-02-27 11:56:00,
2013-02-27 07:06:00,39.4,25.5,29.65,NNE,17,2.0,5.8,57,0.00,,,-99.99,FreeWX 2.04,2013-02-27 12:06:00,
2013-02-27 07:16:00,39.6,25.2,29.68,NNE,14,2.0,8.3,56,0.00,,,-99.99,FreeWX 2.04,2013-02-27 12:16:00,
2013-02-27 07:26:00,39.6,24.8,29.68,ENE,76,3.0,9.2,55,0.00,,,-99.99,FreeWX 2.04,2013-02-27 12:26:00,
2013-02-27 07:36:00,39.6,23.9,29.68,NE,54,3.0,6.9,53,0.00,,,-99.99,FreeWX 2.04,2013-02-27 12:36:00,
2013-02-27 07:46:00,39.7,23.2,29.68,NNE,17,3.0,7.8,51,0.00,,,-99.99,FreeWX 2.04,2013-02-27 12:46:00,
2013-02-27 07:56:00,39.7,22.6,29.68,NNE,19,2.0,6.9,50,0.00,,,-99.99,FreeWX 2.04,2013-02-27 12:56:00,
2013-02-27 08:06:00,39.7,22.6,29.68,North,5,2.0,7.8,50,0.00,,,-99.99,FreeWX 2.04,2013-02-27 13:06:00,
2013-02-27 08:16:00,39.9,22.8,29.71,NE,56,3.0,6.9,50,0.00,,,-99.99,FreeWX 2.04,2013-02-27 13:16:00,
2013-02-27 08:26:00,39.9,22.8,29.71,NNE,29,2.0,6.7,50,0.00,,,-99.99,FreeWX 2.04,2013-02-27 13:26:00,
2013-02-27 08:36:00,39.9,22.8,29.71,NNE,20,4.0,9.2,50,0.00,,,-99.99,FreeWX 2.04,2013-02-27 13:36:00,
2013-02-27 08:46:00,39.9,22.3,29.71,ENE,63,6.0,12.1,49,0.00,,,-99.99,FreeWX 2.04,2013-02-27 13:46:00,
2013-02-27 08:56:00,39.9,22.3,29.71,NE,39,5.0,10.5,49,0.00,,,-99.99,FreeWX 2.04,2013-02-27 13:56:00,
2013-02-27 09:06:00,39.9,22.3,29.71,NNE,15,4.0,8.7,49,0.00,,,-99.99,FreeWX 2.04,2013-02-27 14:06:00,
2013-02-27 09:16:00,39.9,22.3,29.71,East,80,4.0,10.1,49,0.00,,,-99.99,FreeWX 2.04,2013-02-27 14:16:00,
2013-02-27 09:26:00,39.9,22.3,29.71,ENE,60,4.0,8.7,49,0.00,,,-99.99,FreeWX 2.04,2013-02-27 14:26:00,
2013-02-27 09:36:00,40.1,22.5,29.71,NNE,30,3.0,11.0,49,0.00,,,-99.99,FreeWX 2.04,2013-02-27 14:36:00,
2013-02-27 09:46:00,40.1,22.5,29.74,NNE,25,4.0,8.7,49,0.00,,,-99.99,FreeWX 2.04,2013-02-27 14:46:00,
2013-02-27 09:56:00,40.1,22.5,29.74,North,6,4.0,8.7,49,0.00,,,-99.99,FreeWX 2.04,2013-02-27 14:56:00,
2013-02-27 10:06:00,39.7,23.5,29.74,NNE,32,3.0,8.3,52,0.00,,,-99.99,FreeWX 2.04,2013-02-27 15:06:00,
2013-02-27 10:16:00,39.6,24.3,29.74,NNE,26,3.0,8.3,54,0.00,,,-99.99,FreeWX 2.04,2013-02-27 15:16:00,
2013-02-27 10:26:00,39.6,24.8,29.74,NNE,19,3.0,6.9,55,0.00,,,-99.99,FreeWX 2.04,2013-02-27 15:26:00,
2013-02-27 10:36:00,39.7,25.7,29.74,North,7,4.0,10.1,57,0.00,,,-99.99,FreeWX 2.04,2013-02-27 15:36:00,
2013-02-27 10:46:00,40.5,26.4,29.74,NNE,27,4.0,9.2,57,0.00,,,-99.99,FreeWX 2.04,2013-02-27 15:46:00,
2013-02-27 10:56:00,40.6,26.2,29.74,NNE,15,5.0,8.7,56,0.00,,,-99.99,FreeWX 2.04,2013-02-27 15:56:00,
2013-02-27 11:06:00,40.6,26.2,29.74,North,11,4.0,9.6,56,0.00,,,-99.99,FreeWX 2.04,2013-02-27 16:06:00,
2013-02-27 11:17:00,40.5,25.2,29.74,NNE,13,4.0,10.5,54,0.00,,,-99.99,FreeWX 2.04,2013-02-27 16:17:00,
2013-02-27 11:27:00,40.6,24.8,29.74,North,5,5.0,10.1,53,0.00,,,-99.99,FreeWX 2.04,2013-02-27 16:27:00,
2013-02-27 11:37:00,41.0,25.2,29.71,NNE,20,4.0,8.3,53,0.00,,,-99.99,FreeWX 2.04,2013-02-27 16:37:00,
2013-02-27 11:47:00,41.0,23.7,29.71,NE,43,5.0,11.6,50,0.00,,,-99.99,FreeWX 2.04,2013-02-27 16:47:00,
2013-02-27 11:57:00,41.2,23.9,29.71,NNE,22,4.0,11.2,50,0.00,,,-99.99,FreeWX 2.04,2013-02-27 16:57:00,
2013-02-27 12:07:00,41.4,23.7,29.71,NNE,30,4.0,9.2,49,0.00,,,-99.99,FreeWX 2.04,2013-02-27 17:07:00,
2013-02-27 12:17:00,41.4,23.7,29.71,NE,47,4.0,9.6,49,0.00,,,-99.99,FreeWX 2.04,2013-02-27 17:17:00,
2013-02-27 12:27:00,41.0,23.7,29.71,NE,49,4.0,12.1,50,0.00,,,-99.99,FreeWX 2.04,2013-02-27 17:27:00,
2013-02-27 12:37:00,41.4,24.6,29.71,NNE,19,4.0,10.5,51,0.00,,,-99.99,FreeWX 2.04,2013-02-27 17:37:00,
2013-02-27 12:47:00,41.7,24.4,29.71,NNE,15,4.0,9.2,50,0.00,,,-99.99,FreeWX 2.04,2013-02-27 17:47:00,
2013-02-27 12:57:00,41.7,23.9,29.71,North,4,5.0,9.6,49,0.00,,,-99.99,FreeWX 2.04,2013-02-27 17:57:00,
2013-02-27 13:07:00,41.9,24.1,29.71,NNE,25,5.0,11.2,49,0.00,,,-99.99,FreeWX 2.04,2013-02-27 18:07:00,
2013-02-27 13:17:00,41.7,23.5,29.71,NNE,12,4.0,10.1,48,0.00,,,-99.99,FreeWX 2.04,2013-02-27 18:17:00,
2013-02-27 13:27:00,43.2,25.9,29.71,NNE,13,4.0,9.6,50,0.00,,,-99.99,FreeWX 2.04,2013-02-27 18:27:00,
2013-02-27 13:37:00,43.7,23.7,29.68,NNE,33,4.0,8.7,45,0.00,,,-99.99,FreeWX 2.04,2013-02-27 18:37:00,
2013-02-27 13:47:00,43.3,20.7,29.68,NNE,33,6.0,15.4,40,0.00,,,-99.99,FreeWX 2.04,2013-02-27 18:47:00,
2013-02-27 13:57:00,43.2,20.5,29.68,NE,39,5.0,10.1,40,0.00,,,-99.99,FreeWX 2.04,2013-02-27 18:57:00,
2013-02-27 14:07:00,43.0,19.2,29.68,NE,46,5.0,11.2,38,0.00,,,-99.99,FreeWX 2.04,2013-02-27 19:07:00,
2013-02-27 14:17:00,42.6,18.1,29.68,NE,41,5.0,13.0,37,0.00,,,-99.99,FreeWX 2.04,2013-02-27 19:17:00,
2013-02-27 14:27:00,42.3,18.5,29.68,NE,50,4.0,11.2,38,0.00,,,-99.99,FreeWX 2.04,2013-02-27 19:27:00,
2013-02-27 14:37:00,42.3,17.8,29.68,NE,48,6.0,11.6,37,0.00,,,-99.99,FreeWX 2.04,2013-02-27 19:37:00,
2013-02-27 14:47:00,42.3,17.2,29.68,NE,49,5.0,12.5,36,0.00,,,-99.99,FreeWX 2.04,2013-02-27 19:47:00,
2013-02-27 14:57:00,42.4,18.7,29.68,East,85,3.0,9.6,38,0.00,,,-99.99,FreeWX 2.04,2013-02-27 19:57:00,
2013-02-27 15:07:00,41.9,18.7,29.68,NE,52,5.0,11.6,39,0.00,,,-99.99,FreeWX 2.04,2013-02-27 20:07:00,
2013-02-27 15:17:00,41.7,20.8,29.68,NE,42,5.0,9.2,43,0.00,,,-99.99,FreeWX 2.04,2013-02-27 20:17:00,
2013-02-27 15:27:00,41.9,20.5,29.68,NE,37,5.0,9.2,42,0.00,,,-99.99,FreeWX 2.04,2013-02-27 20:27:00,
2013-02-27 15:37:00,41.9,19.9,29.68,NE,51,3.0,8.3,41,0.00,,,-99.99,FreeWX 2.04,2013-02-27 20:37:00,
2013-02-27 15:47:00,41.5,19.6,29.71,NE,51,4.0,7.4,41,0.00,,,-99.99,FreeWX 2.04,2013-02-27 20:47:00,
2013-02-27 15:57:00,41.2,21.4,29.71,NNE,32,4.0,9.2,45,0.00,,,-99.99,FreeWX 2.04,2013-02-27 20:57:00,
2013-02-27 16:07:00,40.8,21.2,29.71,ENE,61,4.0,9.6,45,0.00,,,-99.99,FreeWX 2.04,2013-02-27 21:07:00,
2013-02-27 16:17:00,40.5,21.4,29.71,ENE,61,4.0,9.6,46,0.00,,,-99.99,FreeWX 2.04,2013-02-27 21:17:00,
2013-02-27 16:27:00,40.5,21.4,29.71,ENE,69,4.0,12.1,46,0.00,,,-99.99,FreeWX 2.04,2013-02-27 21:27:00,
2013-02-27 16:37:00,40.3,19.6,29.71,East,89,5.0,10.1,43,0.00,,,-99.99,FreeWX 2.04,2013-02-27 21:37:00,
2013-02-27 16:47:00,40.1,18.9,29.71,ENE,69,5.0,10.1,42,0.00,,,-99.99,FreeWX 2.04,2013-02-27 21:47:00,
2013-02-27 16:57:00,39.9,18.7,29.71,NE,47,6.0,13.0,42,0.00,,,-99.99,FreeWX 2.04,2013-02-27 21:57:00,
2013-02-27 17:07:00,39.7,19.0,29.71,NE,40,5.0,14.8,43,0.00,,,-99.99,FreeWX 2.04,2013-02-27 22:07:00,
2013-02-27 17:17:00,39.7,19.6,29.71,NE,42,5.0,10.1,44,0.00,,,-99.99,FreeWX 2.04,2013-02-27 22:17:00,
2013-02-27 17:27:00,39.6,19.4,29.71,NNE,24,3.0,6.7,44,0.00,,,-99.99,FreeWX 2.04,2013-02-27 22:27:00,
2013-02-27 17:37:00,39.4,19.2,29.71,East,81,1.0,4.0,44,0.00,,,-99.99,FreeWX 2.04,2013-02-27 22:37:00,
2013-02-27 17:47:00,39.2,18.7,29.74,ENE,70,4.0,12.5,43,0.00,,,-99.99,FreeWX 2.04,2013-02-27 22:47:00,
2013-02-27 17:57:00,39.0,18.5,29.74,East,79,6.0,11.6,43,0.00,,,-99.99,FreeWX 2.04,2013-02-27 22:57:00,
2013-02-27 18:07:00,38.3,19.4,29.74,East,82,6.0,13.9,46,0.00,,,-99.99,FreeWX 2.04,2013-02-27 23:07:00,
2013-02-27 18:17:00,37.9,20.5,29.74,ENE,57,5.0,11.2,49,0.00,,,-99.99,FreeWX 2.04,2013-02-27 23:17:00,
2013-02-27 18:27:00,37.6,20.7,29.74,East,81,6.0,12.1,50,0.00,,,-99.99,FreeWX 2.04,2013-02-27 23:27:00,
2013-02-27 18:37:00,37.2,20.8,29.74,East,82,6.0,13.9,51,0.00,,,-99.99,FreeWX 2.04,2013-02-27 23:37:00,
2013-02-27 18:47:00,36.9,20.8,29.74,ENE,66,5.0,9.6,52,0.00,,,-99.99,FreeWX 2.04,2013-02-27 23:47:00,
2013-02-27 18:57:00,36.9,20.8,29.74,ENE,64,5.0,12.1,52,0.00,,,-99.99,FreeWX 2.04,2013-02-27 23:57:00,
2013-02-27 19:07:00,36.3,20.8,29.74,East,86,2.0,6.9,53,0.00,,,-99.99,FreeWX 2.04,2013-02-28 00:07:00,
2013-02-27 19:17:00,35.8,20.3,29.76,East,88,2.0,6.9,53,0.00,,,-99.99,FreeWX 2.04,2013-02-28 00:17:00,
2013-02-27 19:27:00,35.4,20.5,29.76,ENE,78,3.0,6.7,54,0.04,,,-99.99,FreeWX 2.04,2013-02-28 00:27:00,
2013-02-27 19:37:00,35.1,20.5,29.76,East,98,2.0,5.4,55,0.04,,,-99.99,FreeWX 2.04,2013-02-28 00:37:00,
2013-02-27 19:47:00,34.9,20.3,29.76,ENE,71,1.0,6.3,55,0.04,,,-99.99,FreeWX 2.04,2013-02-28 00:47:00,
2013-02-27 19:57:00,34.7,20.7,29.76,ENE,62,2.0,5.8,56,0.04,,,-99.99,FreeWX 2.04,2013-02-28 00:57:00,
2013-02-27 20:07:00,34.7,20.7,29.76,North,-999,0.0,4.5,56,0.04,,,-99.99,FreeWX 2.04,2013-02-28 01:07:00,
2013-02-27 20:17:00,34.9,21.2,29.76,North,-999,0.0,4.5,57,0.04,,,-99.99,FreeWX 2.04,2013-02-28 01:17:00,
2013-02-27 20:27:00,34.9,21.6,29.76,North,-999,0.0,3.1,58,0.00,,,-99.99,FreeWX 2.04,2013-02-28 01:27:00,
2013-02-27 20:37:00,34.7,21.4,29.76,ENE,77,1.0,5.4,58,0.00,,,-99.99,FreeWX 2.04,2013-02-28 01:37:00,
2013-02-27 20:47:00,34.5,21.7,29.76,ENE,60,1.0,5.4,59,0.00,,,-99.99,FreeWX 2.04,2013-02-28 01:47:00,
2013-02-27 20:57:00,34.3,21.9,29.76,ENE,61,2.0,6.7,60,0.00,,,-99.99,FreeWX 2.04,2013-02-28 01:57:00,
2013-02-27 21:07:00,34.3,22.3,29.76,ENE,63,2.0,6.7,61,0.00,,,-99.99,FreeWX 2.04,2013-02-28 02:07:00,
2013-02-27 21:17:00,34.3,22.6,29.76,ENE,72,2.0,6.3,62,0.00,,,-99.99,FreeWX 2.04,2013-02-28 02:17:00,
2013-02-27 21:27:00,34.3,22.6,29.76,NE,41,1.0,4.5,62,0.00,,,-99.99,FreeWX 2.04,2013-02-28 02:27:00,
2013-02-27 21:37:00,34.0,22.3,29.76,East,99,1.0,4.9,62,0.00,,,-99.99,FreeWX 2.04,2013-02-28 02:37:00,
2013-02-27 21:47:00,34.2,22.8,29.76,NNE,30,1.0,4.9,63,0.00,,,-99.99,FreeWX 2.04,2013-02-28 02:47:00,
2013-02-27 21:57:00,34.3,23.0,29.76,NNE,20,2.0,4.9,63,0.00,,,-99.99,FreeWX 2.04,2013-02-28 02:57:00,
2013-02-27 22:07:00,34.5,23.2,29.76,NNE,14,1.0,5.4,63,0.00,,,-99.99,FreeWX 2.04,2013-02-28 03:07:00,
2013-02-27 22:17:00,34.5,23.5,29.76,NNE,19,2.0,5.4,64,0.00,,,-99.99,FreeWX 2.04,2013-02-28 03:17:00,
2013-02-27 22:27:00,34.3,23.4,29.76,North,11,2.0,6.9,64,0.00,,,-99.99,FreeWX 2.04,2013-02-28 03:27:00,
2013-02-27 22:37:00,34.5,23.5,29.76,NNE,19,3.0,5.4,64,0.00,,,-99.99,FreeWX 2.04,2013-02-28 03:37:00,
2013-02-27 22:47:00,34.3,23.0,29.74,ENE,67,1.0,5.8,63,0.00,,,-99.99,FreeWX 2.04,2013-02-28 03:47:00,
2013-02-27 22:57:00,34.3,23.4,29.74,NE,48,2.0,4.9,64,0.00,,,-99.99,FreeWX 2.04,2013-02-28 03:57:00,
2013-02-27 23:07:00,34.5,23.5,29.74,NNE,26,2.0,6.7,64,0.00,,,-99.99,FreeWX 2.04,2013-02-28 04:07:00,
2013-02-27 23:17:00,34.5,23.5,29.74,NE,53,3.0,6.3,64,0.00,,,-99.99,FreeWX 2.04,2013-02-28 04:17:00,
2013-02-27 23:27:00,34.5,23.2,29.74,ENE,62,2.0,7.4,63,0.00,,,-99.99,FreeWX 2.04,2013-02-28 04:27:00,
2013-02-27 23:37:00,34.3,22.6,29.74,ESE,122,1.0,5.8,62,0.00,,,-99.99,FreeWX 2.04,2013-02-28 04:37:00,
2013-02-27 23:47:00,34.3,22.6,29.74,NNE,15,2.0,5.8,62,0.00,,,-99.99,FreeWX 2.04,2013-02-28 04:47:00,
2013-02-27 23:57:00,34.5,22.8,29.74,ENE,66,1.0,6.7,62,0.00,,,-99.99,FreeWX 2.04,2013-02-28 04:57:00,